Time;durP1;ratioP1;P1;durP2;ratioP2;P2;SDS_P1;SDS_P2;PMS_P1;PMS_P2;Temp;Humidity;BMP_temperature;BMP_pressure;BME280_temperature;BME280_humidity;BME280_pressure;Samples;Min_cycle;Max_cycle;Signal;HPM_P1;HPM_P2
2022/12/19 00:01:30;;;;;;;85.47;28.63;;;-1.30;84.00;;;;;;4989341;28;20038;-68
2022/12/19 00:04:02;;;;;;;81.40;27.17;;;-1.20;84.10;;;;;;4984456;28;20528;-67
2022/12/19 00:06:29;;;;;;;85.75;28.38;;;-1.20;84.00;;;;;;4987362;28;20343;-68
2022/12/19 00:08:57;;;;;;;82.38;27.70;;;-1.20;83.90;;;;;;4988242;28;20460;-68
2022/12/19 00:11:23;;;;;;;80.88;26.63;;;-1.20;83.90;;;;;;4990997;28;20058;-68
2022/12/19 00:13:49;;;;;;;83.10;27.75;;;-1.20;83.90;;;;;;4986646;28;20042;-67
2022/12/19 00:16:17;;;;;;;82.20;27.65;;;-1.20;83.90;;;;;;4989467;28;20115;-67
2022/12/19 00:18:44;;;;;;;85.70;29.15;;;-1.10;83.90;;;;;;4988041;28;20031;-68
2022/12/19 00:21:16;;;;;;;80.97;28.55;;;-1.10;83.80;;;;;;4985066;28;20125;-68
2022/12/19 00:23:42;;;;;;;88.85;28.00;;;-1.10;83.70;;;;;;4987494;28;20109;-67
2022/12/19 00:26:21;;;;;;;92.70;28.90;;;-1.10;83.80;;;;;;4986733;28;20529;-67
2022/12/19 00:28:49;;;;;;;92.53;29.00;;;-1.10;83.80;;;;;;4986017;28;20036;-67
2022/12/19 00:31:17;;;;;;;91.60;29.10;;;-1.10;83.90;;;;;;4987240;28;20932;-67
2022/12/19 00:33:43;;;;;;;88.07;29.58;;;-1.10;83.90;;;;;;4984722;28;20034;-67
2022/12/19 00:36:14;;;;;;;86.47;29.08;;;-1.10;83.90;;;;;;4985601;28;20437;-67
2022/12/19 00:38:43;;;;;;;93.70;29.52;;;-1.10;83.90;;;;;;4987387;28;20577;-67
2022/12/19 00:41:15;;;;;;;84.47;27.80;;;-1.00;83.90;;;;;;4988774;28;20046;-67
2022/12/19 00:43:41;;;;;;;97.53;30.17;;;-1.00;83.90;;;;;;4983460;28;20038;-67
2022/12/19 00:46:12;;;;;;;94.20;29.27;;;-1.10;83.70;;;;;;4987268;28;20086;-68
2022/12/19 00:48:38;;;;;;;93.30;30.00;;;-1.00;83.70;;;;;;4986970;28;20544;-67
2022/12/19 00:51:11;;;;;;;93.95;30.73;;;-1.00;83.80;;;;;;4988709;28;20086;-67
2022/12/19 00:53:37;;;;;;;97.00;29.75;;;-1.00;83.70;;;;;;4985544;28;20034;-67
2022/12/19 00:56:05;;;;;;;92.65;29.65;;;-1.00;83.80;;;;;;4988299;28;20041;-67
2022/12/19 00:58:31;;;;;;;95.78;28.75;;;-1.00;83.70;;;;;;4986496;28;20041;-67
2022/12/19 01:00:57;;;;;;;98.05;29.77;;;-1.00;83.80;;;;;;4988227;28;20030;-67
2022/12/19 01:03:23;;;;;;;84.75;27.85;;;-1.00;83.80;;;;;;4976425;28;20034;-67
2022/12/19 01:05:50;;;;;;;91.88;28.52;;;-1.00;83.70;;;;;;4977708;28;20034;-67
2022/12/19 01:08:19;;;;;;;81.68;26.95;;;-0.90;83.70;;;;;;4976580;28;20607;-67
2022/12/19 01:10:46;;;;;;;79.03;26.52;;;-0.90;83.60;;;;;;4974881;28;20034;-67
2022/12/19 01:13:12;;;;;;;88.45;28.20;;;-0.90;83.50;;;;;;4974407;28;20085;-68
2022/12/19 01:15:40;;;;;;;81.00;27.10;;;-1.00;83.30;;;;;;4976966;28;20129;-67
2022/12/19 01:18:09;;;;;;;80.47;27.15;;;-1.00;83.20;;;;;;4975904;28;20038;-67
2022/12/19 01:20:38;;;;;;;83.32;28.33;;;-1.00;83.20;;;;;;4975420;28;20312;-67
2022/12/19 01:23:05;;;;;;;80.97;26.92;;;-1.00;83.20;;;;;;4979288;28;20395;-67
2022/12/19 01:25:32;;;;;;;79.45;27.13;;;-1.10;83.20;;;;;;4972818;28;20418;-67
2022/12/19 01:27:58;;;;;;;91.82;29.65;;;-1.10;83.30;;;;;;4990874;28;20031;-67
2022/12/19 01:30:24;;;;;;;88.55;29.00;;;-1.10;83.30;;;;;;4976018;28;20040;-67
2022/12/19 01:32:49;;;;;;;82.32;27.67;;;-1.10;83.30;;;;;;4978041;28;20121;-67
2022/12/19 01:35:15;;;;;;;85.28;27.50;;;-1.10;83.30;;;;;;4973847;28;20057;-67
2022/12/19 01:37:40;;;;;;;87.88;29.35;;;-1.10;83.40;;;;;;4982165;28;20030;-67
2022/12/19 01:40:06;;;;;;;83.18;27.00;;;-1.10;84.20;;;;;;4985931;28;20045;-67
2022/12/19 01:42:36;;;;;;;84.70;28.92;;;-1.10;83.50;;;;;;4979169;28;20026;-68
2022/12/19 01:45:07;;;;;;;87.35;28.38;;;-1.10;83.50;;;;;;4985793;28;20030;-67
2022/12/19 01:47:44;;;;;;;85.18;28.73;;;-1.10;83.70;;;;;;4979075;28;20027;-67
2022/12/19 01:50:14;;;;;;;85.80;28.67;;;-1.10;83.90;;;;;;4979619;28;20041;-67
2022/12/19 01:52:41;;;;;;;89.47;28.27;;;-1.10;84.00;;;;;;4977557;28;20042;-67
2022/12/19 01:55:07;;;;;;;83.20;25.48;;;-1.10;84.00;;;;;;4979009;28;20115;-67
2022/12/19 01:57:33;;;;;;;85.53;27.20;;;-1.10;84.10;;;;;;4977225;28;20417;-67
2022/12/19 02:00:00;;;;;;;83.07;27.52;;;-1.10;84.20;;;;;;4979898;28;20034;-67
2022/12/19 02:02:32;;;;;;;79.78;26.50;;;-1.10;84.20;;;;;;4979366;28;20042;-67
2022/12/19 02:05:00;;;;;;;80.53;26.67;;;-1.00;84.30;;;;;;4975253;28;20090;-68
2022/12/19 02:07:27;;;;;;;79.50;26.67;;;-1.00;84.40;;;;;;4978087;28;20034;-67
2022/12/19 02:09:54;;;;;;;79.80;27.00;;;-1.00;84.20;;;;;;4979100;28;20259;-67
2022/12/19 02:12:21;;;;;;;87.47;27.77;;;-1.00;84.20;;;;;;4971922;28;20038;-67
2022/12/19 02:14:47;;;;;;;81.57;27.48;;;-1.00;84.00;;;;;;4980173;28;20050;-67
2022/12/19 02:17:15;;;;;;;81.45;27.95;;;-0.90;84.00;;;;;;4981373;28;20045;-66
2022/12/19 02:20:19;;;;;;;75.78;26.17;;;-1.00;84.00;;;;;;4972827;28;20035;-67
2022/12/19 02:22:59;;;;;;;80.63;26.17;;;-0.90;84.20;;;;;;4979524;28;20027;-67
2022/12/19 02:25:48;;;;;;;78.80;26.45;;;-1.00;84.10;;;;;;4979691;28;20088;-67
2022/12/19 02:28:25;;;;;;;79.93;25.83;;;-0.90;84.30;;;;;;4976467;28;20030;-67
2022/12/19 02:31:05;;;;;;;72.35;24.88;;;-1.00;84.20;;;;;;4974693;28;20090;-67
2022/12/19 02:33:52;;;;;;;74.07;25.05;;;-0.90;84.30;;;;;;4978812;28;20034;-67
2022/12/19 02:36:17;;;;;;;67.07;23.95;;;-0.90;84.40;;;;;;4980318;28;20398;-67
2022/12/19 02:39:06;;;;;;;71.40;24.38;;;-0.90;84.40;;;;;;4977150;28;20029;-68
2022/12/19 02:41:43;;;;;;;71.75;26.05;;;-0.90;84.60;;;;;;4973765;28;20100;-66
2022/12/19 02:44:21;;;;;;;72.93;24.80;;;-0.90;84.50;;;;;;4981864;28;20061;-67
2022/12/19 02:46:48;;;;;;;71.97;23.83;;;-0.90;84.60;;;;;;4984460;28;20042;-67
2022/12/19 02:49:14;;;;;;;77.60;24.35;;;-0.80;84.60;;;;;;4981635;28;20406;-66
2022/12/19 02:51:39;;;;;;;66.55;23.85;;;-0.80;84.70;;;;;;4984032;28;20114;-67
2022/12/19 02:54:06;;;;;;;70.85;23.73;;;-0.80;84.60;;;;;;4978967;28;20129;-67
2022/12/19 02:56:47;;;;;;;68.90;23.88;;;-0.80;84.60;;;;;;4979388;28;20085;-67
2022/12/19 02:59:40;;;;;;;70.78;25.08;;;-0.80;84.70;;;;;;4981520;28;20030;-67
2022/12/19 03:02:16;;;;;;;69.47;24.60;;;-0.70;84.70;;;;;;4982804;28;20494;-67
2022/12/19 03:05:06;;;;;;;74.18;23.85;;;-0.70;84.60;;;;;;4985220;28;20030;-68
2022/12/19 03:07:41;;;;;;;66.82;23.60;;;-0.70;84.60;;;;;;4982768;28;20046;-68
2022/12/19 03:10:40;;;;;;;73.97;25.48;;;-0.70;84.50;;;;;;4981264;28;20056;-67
2022/12/19 03:13:20;;;;;;;62.92;22.05;;;-0.60;84.80;;;;;;4979268;28;20335;-68
2022/12/19 03:15:46;;;;;;;70.55;23.77;;;-0.60;84.70;;;;;;4978069;28;20034;-67
2022/12/19 03:18:12;;;;;;;64.15;24.20;;;-0.60;84.70;;;;;;4978010;28;20050;-67
2022/12/19 03:21:05;;;;;;;67.30;23.90;;;-0.60;84.70;;;;;;4978713;28;20130;-68
2022/12/19 03:23:30;;;;;;;69.25;24.40;;;-0.60;84.90;;;;;;4977167;28;20081;-67
2022/12/19 03:26:06;;;;;;;69.40;24.73;;;-0.60;84.80;;;;;;4980704;28;20035;-67
2022/12/19 03:28:49;;;;;;;67.95;25.05;;;-0.50;84.90;;;;;;4977274;28;20035;-68
2022/12/19 03:31:18;;;;;;;60.13;22.85;;;-0.50;84.90;;;;;;4979724;28;20035;-67
2022/12/19 03:33:46;;;;;;;65.75;24.33;;;-0.50;84.90;;;;;;4978057;28;20395;-67
2022/12/19 03:36:18;;;;;;;69.22;25.40;;;-0.50;84.90;;;;;;4994231;28;20053;-68
2022/12/19 03:38:45;;;;;;;69.63;24.85;;;-0.50;84.90;;;;;;4976751;28;20486;-67
2022/12/19 03:41:13;;;;;;;66.13;24.92;;;-0.40;84.90;;;;;;4981752;28;20038;-68
2022/12/19 03:43:40;;;;;;;67.88;25.17;;;-0.40;84.90;;;;;;4981605;28;20039;-68
2022/12/19 03:46:20;;;;;;;64.72;23.27;;;-0.40;85.00;;;;;;4978754;28;20035;-68
2022/12/19 03:48:49;;;;;;;68.85;24.90;;;-0.40;85.10;;;;;;4981975;28;20056;-67
2022/12/19 03:51:39;;;;;;;66.15;24.90;;;-0.30;85.10;;;;;;4980678;28;20502;-68
2022/12/19 03:54:23;;;;;;;67.30;23.50;;;-0.30;85.30;;;;;;4982239;28;20046;-68
2022/12/19 03:57:01;;;;;;;57.13;21.42;;;-0.30;85.20;;;;;;4981378;28;20522;-67
2022/12/19 03:59:52;;;;;;;60.50;22.83;;;-0.30;85.20;;;;;;4977793;28;20031;-67
2022/12/19 04:02:20;;;;;;;67.63;23.40;;;-0.20;85.20;;;;;;4979200;28;20595;-67
2022/12/19 04:04:57;;;;;;;62.13;22.65;;;-0.20;85.10;;;;;;4978314;28;20130;-67
2022/12/19 04:07:23;;;;;;;61.58;22.95;;;-0.20;85.00;;;;;;4981418;28;20049;-67
2022/12/19 04:09:50;;;;;;;65.65;23.65;;;-0.10;85.00;;;;;;4977933;28;20031;-66
2022/12/19 04:12:28;;;;;;;72.47;24.17;;;-0.10;85.80;;;;;;4976693;28;20081;-67
2022/12/19 04:14:54;;;;;;;65.55;23.85;;;-0.10;85.90;;;;;;4979309;28;20040;-67
2022/12/19 04:17:36;;;;;;;63.58;23.60;;;-0.10;85.10;;;;;;4980287;28;20034;-67
2022/12/19 04:20:18;;;;;;;62.55;23.17;;;0.00;85.20;;;;;;4979316;28;20035;-67
2022/12/19 04:22:49;;;;;;;58.42;22.17;;;0.00;85.30;;;;;;4977384;28;20073;-67
2022/12/19 04:25:24;;;;;;;62.10;23.15;;;0.00;85.40;;;;;;4977464;28;20034;-66
2022/12/19 04:27:56;;;;;;;57.08;21.45;;;0.00;85.40;;;;;;4977664;28;20134;-68
2022/12/19 04:30:22;;;;;;;61.85;22.95;;;0.00;85.40;;;;;;4979764;28;20047;-67
2022/12/19 04:32:49;;;;;;;61.03;23.70;;;0.10;85.40;;;;;;4984639;28;20429;-68
2022/12/19 04:35:14;;;;;;;71.13;27.60;;;0.10;85.40;;;;;;4975903;28;20034;-67
2022/12/19 04:37:40;;;;;;;61.83;23.40;;;0.10;85.40;;;;;;4976891;28;20588;-67
2022/12/19 04:40:07;;;;;;;64.03;24.42;;;0.10;85.40;;;;;;4979633;28;20038;-67
2022/12/19 04:42:33;;;;;;;68.82;26.65;;;0.20;85.40;;;;;;4981287;28;20031;-67
2022/12/19 04:44:59;;;;;;;61.15;23.55;;;0.20;85.50;;;;;;4977952;28;20050;-66
2022/12/19 04:47:24;;;;;;;63.60;25.50;;;0.20;85.50;;;;;;4979516;28;20545;-67
2022/12/19 04:49:50;;;;;;;64.22;23.92;;;0.30;85.60;;;;;;4976044;28;20069;-67
2022/12/19 04:52:15;;;;;;;62.97;23.60;;;0.30;85.70;;;;;;4980946;28;20192;-67
2022/12/19 04:54:41;;;;;;;62.63;22.75;;;0.30;85.90;;;;;;4979283;28;20430;-67
2022/12/19 04:57:07;;;;;;;65.00;23.73;;;0.40;86.00;;;;;;4980470;28;20046;-68
2022/12/19 04:59:33;;;;;;;53.08;21.58;;;0.40;85.90;;;;;;4977138;28;20043;-67
2022/12/19 05:01:58;;;;;;;55.90;22.05;;;0.40;86.00;;;;;;4977791;28;20506;-68
2022/12/19 05:04:24;;;;;;;56.45;22.45;;;0.40;86.00;;;;;;4978390;28;20121;-67
2022/12/19 05:06:49;;;;;;;61.03;22.92;;;0.50;86.10;;;;;;4979043;28;20621;-67
2022/12/19 05:09:15;;;;;;;55.08;21.67;;;0.50;86.10;;;;;;4980949;28;20030;-67
2022/12/19 05:11:40;;;;;;;59.50;22.88;;;0.50;86.20;;;;;;4980109;28;20053;-68
2022/12/19 05:14:06;;;;;;;58.47;22.85;;;0.60;86.30;;;;;;4981212;28;20398;-68
2022/12/19 05:16:32;;;;;;;58.13;22.98;;;0.60;86.20;;;;;;4974313;28;20120;-68
2022/12/19 05:18:57;;;;;;;58.70;23.73;;;0.60;86.20;;;;;;4982590;28;20030;-67
2022/12/19 05:21:23;;;;;;;59.17;22.45;;;0.70;86.30;;;;;;4978353;28;20457;-68
2022/12/19 05:23:50;;;;;;;60.95;22.83;;;0.70;86.30;;;;;;4981293;28;20049;-67
2022/12/19 05:26:15;;;;;;;55.30;21.75;;;0.70;86.30;;;;;;4976847;28;20350;-67
2022/12/19 05:28:41;;;;;;;58.85;22.83;;;0.70;86.30;;;;;;4977351;28;20044;-67
2022/12/19 05:31:15;;;;;;;61.10;22.77;;;0.70;86.30;;;;;;4975275;28;20030;-67
2022/12/19 05:33:42;;;;;;;59.45;23.35;;;0.80;86.40;;;;;;4978897;28;20553;-68
2022/12/19 05:36:08;;;;;;;58.97;22.20;;;0.80;86.30;;;;;;4975790;28;20046;-67
2022/12/19 05:38:34;;;;;;;56.67;22.48;;;0.80;87.30;;;;;;4976981;28;20532;-68
2022/12/19 05:41:09;;;;;;;63.28;23.15;;;0.80;86.50;;;;;;4978743;28;20522;-67
2022/12/19 05:43:37;;;;;;;55.45;21.52;;;0.80;86.60;;;;;;4984937;28;20034;-67
2022/12/19 05:46:04;;;;;;;60.22;23.40;;;0.80;86.60;;;;;;4975941;28;20035;-68
2022/12/19 05:48:30;;;;;;;58.22;23.42;;;0.80;86.60;;;;;;4970460;28;20613;-68
2022/12/19 05:50:55;;;;;;;63.35;24.38;;;0.80;86.60;;;;;;4979696;28;20073;-68
2022/12/19 05:53:21;;;;;;;63.97;23.60;;;0.80;86.60;;;;;;4979759;28;20164;-68
2022/12/19 05:55:47;;;;;;;62.50;23.65;;;0.80;86.50;;;;;;4979837;28;20422;-68
2022/12/19 05:58:12;;;;;;;65.60;24.02;;;0.90;86.60;;;;;;4978882;28;20105;-68
2022/12/19 06:00:38;;;;;;;60.38;24.05;;;0.90;86.60;;;;;;4979687;28;20057;-68
2022/12/19 06:03:04;;;;;;;67.30;23.92;;;0.90;86.60;;;;;;4976894;28;20380;-67
2022/12/19 06:05:30;;;;;;;65.03;24.23;;;0.90;86.60;;;;;;4977129;28;20117;-68
2022/12/19 06:07:56;;;;;;;62.03;24.08;;;0.90;86.70;;;;;;4978704;28;20658;-68
2022/12/19 06:10:22;;;;;;;64.97;25.35;;;0.90;86.80;;;;;;4981163;28;20042;-68
2022/12/19 06:12:47;;;;;;;64.10;24.20;;;0.90;86.80;;;;;;4973827;28;20038;-68
2022/12/19 06:15:13;;;;;;;66.15;24.52;;;0.90;86.80;;;;;;4978210;28;20038;-67
2022/12/19 06:17:38;;;;;;;64.03;23.92;;;1.00;86.90;;;;;;4982984;28;20509;-68
2022/12/19 06:20:05;;;;;;;68.63;25.50;;;1.00;87.00;;;;;;4977929;28;20132;-68
2022/12/19 06:22:32;;;;;;;64.72;24.70;;;1.00;87.00;;;;;;4977381;28;20038;-68
2022/12/19 06:24:58;;;;;;;68.05;24.42;;;1.00;86.90;;;;;;4981765;28;20034;-67
2022/12/19 06:27:23;;;;;;;64.65;24.48;;;1.00;86.90;;;;;;4985528;28;20044;-67
2022/12/19 06:29:49;;;;;;;66.57;24.33;;;1.00;86.90;;;;;;4982109;28;20117;-68
2022/12/19 06:32:15;;;;;;;63.47;24.80;;;1.10;87.00;;;;;;4979163;28;20054;-67
2022/12/19 06:34:40;;;;;;;59.97;22.67;;;1.10;87.10;;;;;;4976112;28;20549;-67
2022/12/19 06:37:06;;;;;;;57.05;22.85;;;1.10;87.10;;;;;;4985993;28;20038;-68
2022/12/19 06:39:31;;;;;;;64.65;23.85;;;1.20;87.20;;;;;;4979374;28;20034;-68
2022/12/19 06:44:42;;;;;;;63.53;23.42;;;1.20;87.10;;;;;;4978179;28;20130;-68
2022/12/19 06:47:08;;;;;;;58.50;23.52;;;1.20;87.10;;;;;;4985309;28;20106;-68
2022/12/19 06:49:33;;;;;;;64.75;24.42;;;1.30;87.20;;;;;;4985024;28;20462;-68
2022/12/19 06:51:59;;;;;;;62.35;24.35;;;1.30;87.20;;;;;;4988996;28;20482;-68
2022/12/19 06:54:25;;;;;;;58.15;23.08;;;1.30;87.20;;;;;;4989797;28;20049;-68
2022/12/19 06:56:52;;;;;;;59.88;23.20;;;1.40;87.20;;;;;;4988780;28;20152;-68
2022/12/19 06:59:18;;;;;;;63.40;24.20;;;1.40;87.20;;;;;;4989478;28;20019;-68
2022/12/19 07:01:52;;;;;;;61.05;24.73;;;1.40;87.20;;;;;;4995188;28;20118;-68
2022/12/19 07:04:26;;;;;;;;;;;1.50;87.20;;;;;;4989682;28;20116;-68
2022/12/19 07:06:53;;;;;;;59.63;24.08;;;1.50;87.60;;;;;;4989154;28;19922;-68
2022/12/19 07:09:18;;;;;;;65.15;24.30;;;1.60;87.00;;;;;;4988571;28;20045;-68
2022/12/19 07:11:44;;;;;;;62.03;24.65;;;1.50;87.80;;;;;;4985017;28;20042;-68
2022/12/19 07:14:09;;;;;;;59.55;24.13;;;1.60;87.10;;;;;;4988163;28;20482;-68
2022/12/19 07:16:35;;;;;;;58.60;22.90;;;1.60;87.20;;;;;;4985482;28;20148;-68
2022/12/19 07:19:00;;;;;;;60.63;23.52;;;1.60;87.20;;;;;;4988300;28;20090;-68
2022/12/19 07:21:26;;;;;;;57.35;22.88;;;1.60;87.20;;;;;;4987611;28;20483;-68
2022/12/19 07:23:52;;;;;;;55.70;22.90;;;1.70;87.20;;;;;;4986783;28;20045;-68
2022/12/19 07:26:17;;;;;;;61.10;23.65;;;1.70;87.20;;;;;;4987135;28;20039;-67
2022/12/19 07:28:43;;;;;;;57.97;22.63;;;1.70;87.20;;;;;;4986663;28;20045;-68
2022/12/19 07:31:09;;;;;;;52.90;21.98;;;1.70;87.20;;;;;;4988169;28;20504;-68
2022/12/19 07:33:34;;;;;;;58.25;22.95;;;1.70;87.20;;;;;;4987019;28;20121;-68
2022/12/19 07:36:00;;;;;;;54.20;21.73;;;1.80;87.30;;;;;;4993641;28;20035;-67
2022/12/19 07:38:26;;;;;;;52.80;21.10;;;1.80;87.20;;;;;;4989795;28;20041;-68
2022/12/19 07:40:51;;;;;;;56.55;22.88;;;1.80;87.20;;;;;;4986871;28;20744;-68
2022/12/19 07:43:17;;;;;;;57.85;23.35;;;1.90;87.30;;;;;;4988584;28;20051;-68
2022/12/19 07:45:42;;;;;;;55.67;22.70;;;1.90;87.70;;;;;;4984835;28;20866;-67
2022/12/19 07:48:09;;;;;;;53.30;22.15;;;1.90;87.30;;;;;;4982093;28;20030;-68
2022/12/19 07:50:34;;;;;;;58.03;23.65;;;1.90;87.30;;;;;;4977929;28;20057;-68
2022/12/19 07:53:00;;;;;;;59.22;24.45;;;1.90;87.30;;;;;;4978590;28;20498;-68
2022/12/19 07:55:26;;;;;;;55.00;23.45;;;2.00;87.50;;;;;;4977819;28;20081;-68
2022/12/19 07:57:52;;;;;;;55.25;23.95;;;2.00;87.50;;;;;;4979664;28;20101;-68
2022/12/19 08:00:18;;;;;;;50.90;22.27;;;2.00;87.30;;;;;;4981736;28;20642;-67
2022/12/19 08:02:44;;;;;;;53.65;22.77;;;2.00;87.30;;;;;;4980651;28;20325;-67
2022/12/19 08:05:10;;;;;;;63.88;25.00;;;2.00;87.10;;;;;;4978637;28;20539;-68
2022/12/19 08:07:36;;;;;;;63.03;25.17;;;2.10;87.00;;;;;;4976816;28;20093;-67
2022/12/19 08:10:05;;;;;;;61.97;25.80;;;2.10;87.00;;;;;;4975707;28;20489;-67
2022/12/19 08:12:34;;;;;;;61.60;24.58;;;2.10;87.00;;;;;;4978036;28;20490;-67
2022/12/19 08:14:59;;;;;;;61.65;25.13;;;2.10;87.00;;;;;;4979108;28;20053;-65
2022/12/19 08:17:25;;;;;;;63.60;24.90;;;2.20;87.00;;;;;;4969590;28;20042;-68
2022/12/19 08:19:50;;;;;;;62.38;24.83;;;2.20;87.10;;;;;;4971354;28;20309;-69
2022/12/19 08:22:16;;;;;;;60.03;24.15;;;2.20;87.00;;;;;;4971038;28;20121;-69
2022/12/19 08:24:41;;;;;;;63.78;25.45;;;2.20;87.00;;;;;;4976849;28;20224;-69
2022/12/19 08:27:07;;;;;;;60.90;25.13;;;2.30;86.90;;;;;;4977112;28;20162;-69
2022/12/19 08:29:33;;;;;;;69.40;27.65;;;2.30;86.80;;;;;;4974681;28;20529;-69
2022/12/19 08:32:01;;;;;;;68.85;28.80;;;2.30;86.70;;;;;;4965814;28;20035;-68
2022/12/19 08:34:26;;;;;;;70.68;29.08;;;2.30;86.60;;;;;;4975338;28;20683;-69
2022/12/19 08:36:52;;;;;;;74.72;28.85;;;2.30;86.60;;;;;;4974337;28;20451;-68
2022/12/19 08:39:18;;;;;;;67.45;27.35;;;2.30;86.60;;;;;;4976620;28;20050;-68
2022/12/19 08:41:43;;;;;;;65.45;26.65;;;2.20;86.70;;;;;;4976354;28;20113;-68
2022/12/19 08:44:11;;;;;;;67.30;26.40;;;2.20;87.00;;;;;;4974078;28;20473;-69
2022/12/19 08:46:36;;;;;;;66.97;25.65;;;2.20;87.20;;;;;;4974709;28;20038;-68
2022/12/19 08:49:02;;;;;;;69.63;26.45;;;2.20;87.10;;;;;;4977319;28;20410;-69
2022/12/19 08:51:27;;;;;;;64.75;26.30;;;2.20;87.10;;;;;;4980086;28;20117;-69
2022/12/19 08:53:53;;;;;;;70.22;27.05;;;2.30;87.20;;;;;;4973106;28;20046;-69
2022/12/19 08:56:20;;;;;;;66.07;26.25;;;2.30;87.30;;;;;;4980099;28;20031;-68
2022/12/19 08:58:46;;;;;;;63.28;26.20;;;2.30;87.30;;;;;;4969871;28;20046;-68
2022/12/19 09:01:17;;;;;;;64.95;24.80;;;2.40;88.20;;;;;;4973067;28;20038;-68
2022/12/19 09:03:43;;;;;;;67.47;25.50;;;2.40;87.30;;;;;;4974937;28;20638;-68
2022/12/19 09:06:11;;;;;;;62.47;24.58;;;2.40;87.10;;;;;;4977766;28;20070;-69
2022/12/19 09:08:41;;;;;;;63.67;25.98;;;2.40;87.00;;;;;;4974979;28;20129;-67
2022/12/19 09:11:12;;;;;;;66.93;25.98;;;2.50;87.20;;;;;;4972971;28;20046;-68
2022/12/19 09:13:39;;;;;;;68.50;28.65;;;2.50;87.20;;;;;;4972849;28;20441;-68
2022/12/19 09:16:19;;;;;;;68.93;28.65;;;2.50;87.20;;;;;;4974686;28;20046;-69
2022/12/19 09:18:48;;;;;;;70.28;28.20;;;2.60;87.20;;;;;;4981400;28;20046;-68
2022/12/19 09:21:14;;;;;;;67.30;26.50;;;2.60;87.20;;;;;;4986474;28;20144;-68
2022/12/19 09:23:41;;;;;;;66.13;27.25;;;2.70;87.10;;;;;;4979917;28;20054;-68
2022/12/19 09:26:12;;;;;;;69.68;27.80;;;2.70;86.90;;;;;;4980000;28;20532;-68
2022/12/19 09:28:39;;;;;;;74.85;29.02;;;2.80;87.00;;;;;;4984402;28;20030;-69
2022/12/19 09:31:11;;;;;;;68.75;28.13;;;2.80;87.00;;;;;;4982760;28;20524;-69
2022/12/19 09:33:37;;;;;;;74.80;28.50;;;2.90;87.00;;;;;;4983656;28;20406;-69
2022/12/19 09:36:04;;;;;;;64.78;25.77;;;2.90;87.00;;;;;;4983967;28;20046;-69
2022/12/19 09:38:32;;;;;;;68.82;28.05;;;3.00;86.80;;;;;;4979667;28;20042;-68
2022/12/19 09:41:05;;;;;;;71.57;29.90;;;3.00;87.50;;;;;;4979163;28;20066;-69
2022/12/19 09:43:43;;;;;;;70.53;29.58;;;3.00;86.70;;;;;;4981822;28;20061;-69
2022/12/19 09:46:15;;;;;;;68.93;28.08;;;3.10;86.60;;;;;;4979620;28;20061;-69
2022/12/19 09:48:41;;;;;;;72.93;29.50;;;3.10;86.60;;;;;;4978333;28;22217;-69
2022/12/19 09:51:15;;;;;;;69.45;29.10;;;3.20;86.50;;;;;;4981994;28;20049;-69
2022/12/19 09:53:54;;;;;;;63.53;27.95;;;3.20;86.40;;;;;;4980373;28;20046;-69
2022/12/19 09:56:22;;;;;;;72.53;29.38;;;3.30;86.30;;;;;;4996800;28;20035;-69
2022/12/19 09:58:57;;;;;;;72.78;30.25;;;3.30;86.10;;;;;;4974547;28;20513;-69
2022/12/19 10:01:29;;;;;;;82.30;34.88;;;3.30;86.00;;;;;;4975692;28;20347;-69
2022/12/19 10:04:12;;;;;;;76.93;31.48;;;3.30;86.10;;;;;;4978277;28;20557;-69
2022/12/19 10:06:38;;;;;;;71.00;29.85;;;3.40;86.20;;;;;;4981371;28;20109;-69
2022/12/19 10:09:14;;;;;;;70.78;28.67;;;3.40;86.30;;;;;;4980293;28;20439;-69
2022/12/19 10:12:18;;;;;;;69.68;30.38;;;3.40;86.10;;;;;;4977443;28;20038;-69
2022/12/19 10:14:52;;;;;;;73.25;30.50;;;3.50;86.20;;;;;;4968084;28;20687;-69
2022/12/19 10:17:42;;;;;;;67.53;28.50;;;3.50;86.30;;;;;;4978545;28;20042;-69
2022/12/19 10:20:27;;;;;;;65.28;27.80;;;3.50;86.30;;;;;;4996667;28;20050;-69
2022/12/19 10:23:46;;;;;;;64.18;27.15;;;3.60;86.00;;;;;;4978072;28;20039;-69
2022/12/19 10:26:12;;;;;;;63.17;25.40;;;3.60;85.80;;;;;;4937202;28;20098;-68
2022/12/19 10:29:14;;;;;;;68.88;28.45;;;3.60;85.70;;;;;;4931917;28;20075;-68
2022/12/19 10:31:39;;;;;;;66.32;29.00;;;3.60;85.60;;;;;;4975171;28;20061;-68
2022/12/19 10:34:30;;;;;;;67.25;27.60;;;3.60;85.70;;;;;;4984259;28;20101;-68
2022/12/19 10:36:59;;;;;;;70.90;28.33;;;3.70;85.80;;;;;;4983431;28;20096;-67
2022/12/19 10:39:45;;;;;;;61.03;25.77;;;3.70;85.80;;;;;;4983336;28;20030;-69
2022/12/19 10:42:18;;;;;;;64.35;26.92;;;3.70;85.80;;;;;;4984684;28;20588;-69
2022/12/19 10:44:46;;;;;;;69.65;28.20;;;3.70;85.90;;;;;;4985022;28;20607;-68
2022/12/19 10:47:15;;;;;;;71.45;28.60;;;3.70;85.80;;;;;;4987033;28;20533;-68
2022/12/19 10:49:40;;;;;;;66.07;27.05;;;3.80;85.80;;;;;;4984121;28;20489;-69
2022/12/19 10:52:07;;;;;;;69.30;28.05;;;3.80;85.80;;;;;;4983863;28;20026;-69
2022/12/19 10:54:36;;;;;;;67.35;28.50;;;3.80;85.80;;;;;;4981254;28;20507;-69
2022/12/19 10:57:20;;;;;;;71.68;30.88;;;3.90;85.80;;;;;;4983194;28;20445;-69
2022/12/19 10:59:54;;;;;;;71.23;31.73;;;3.90;85.80;;;;;;4984542;28;20478;-69
2022/12/19 11:02:34;;;;;;;72.80;32.03;;;4.00;85.80;;;;;;4982766;28;20545;-68
2022/12/19 11:05:01;;;;;;;72.38;31.00;;;4.00;85.60;;;;;;4980335;28;20034;-69
2022/12/19 11:07:27;;;;;;;75.13;30.73;;;4.10;85.50;;;;;;4981752;28;20045;-69
2022/12/19 11:09:52;;;;;;;73.72;30.77;;;4.10;85.30;;;;;;4986230;28;20034;-68
2022/12/19 11:12:18;;;;;;;68.43;30.35;;;4.10;85.10;;;;;;4984137;28;20026;-69
2022/12/19 11:15:12;;;;;;;77.57;32.10;;;4.10;85.00;;;;;;4988463;28;20226;-69
2022/12/19 11:17:38;;;;;;;66.60;29.25;;;4.10;84.90;;;;;;4987175;28;20077;-69
2022/12/19 11:20:22;;;;;;;67.95;29.27;;;4.10;85.00;;;;;;4985538;28;20506;-69
2022/12/19 11:22:53;;;;;;;73.97;30.50;;;4.20;85.00;;;;;;4985904;28;20039;-69
2022/12/19 11:25:29;;;;;;;68.85;28.92;;;4.10;85.00;;;;;;4980053;28;20054;-69
2022/12/19 11:27:55;;;;;;;66.97;28.80;;;4.10;85.00;;;;;;4986610;28;20043;-68
2022/12/19 11:30:23;;;;;;;61.50;28.23;;;4.10;84.90;;;;;;4989016;28;20141;-69
2022/12/19 11:33:14;;;;;;;65.80;28.08;;;4.10;84.90;;;;;;4985449;28;20145;-68
2022/12/19 11:35:50;;;;;;;57.92;27.40;;;4.10;84.90;;;;;;4984544;28;20549;-68
2022/12/19 11:38:51;;;;;;;60.53;25.98;;;4.10;85.00;;;;;;4982167;28;20038;-68
2022/12/19 11:41:28;;;;;;;57.38;24.45;;;4.10;85.00;;;;;;4941276;28;20034;-69
2022/12/19 11:44:04;;;;;;;61.05;25.90;;;4.10;85.00;;;;;;4984865;28;20061;-69
2022/12/19 11:47:07;;;;;;;62.83;27.10;;;4.10;85.10;;;;;;4987385;28;20030;-68
2022/12/19 11:49:49;;;;;;;69.22;28.88;;;4.10;85.10;;;;;;4984698;28;20465;-69
2022/12/19 11:52:33;;;;;;;66.18;27.58;;;4.20;85.00;;;;;;4987353;28;20031;-69
2022/12/19 11:55:19;;;;;;;63.95;27.35;;;4.10;84.90;;;;;;4985301;28;20043;-69
2022/12/19 11:57:45;;;;;;;68.72;30.23;;;4.20;84.90;;;;;;4988735;28;20034;-68
2022/12/19 12:00:19;;;;;;;63.45;27.90;;;4.20;85.10;;;;;;4987432;28;20035;-68
2022/12/19 12:03:06;;;;;;;65.87;27.60;;;4.20;85.30;;;;;;4984358;28;20030;-69
2022/12/19 12:05:45;;;;;;;65.97;27.05;;;4.20;85.60;;;;;;4987275;28;20289;-69
2022/12/19 12:08:30;;;;;;;67.55;28.05;;;4.20;86.00;;;;;;4987188;28;20096;-69
2022/12/19 12:10:59;;;;;;;64.95;28.17;;;4.20;85.80;;;;;;4984868;28;20343;-69
2022/12/19 12:13:55;;;;;;;62.58;27.50;;;4.30;85.60;;;;;;4987229;28;20388;-69
2022/12/19 12:16:37;;;;;;;68.97;29.50;;;4.30;85.80;;;;;;4986572;28;20026;-68
2022/12/19 12:19:16;;;;;;;71.68;31.80;;;4.30;86.00;;;;;;4984016;28;20676;-69
2022/12/19 12:21:58;;;;;;;76.10;32.95;;;4.40;86.10;;;;;;4986777;28;20410;-69
2022/12/19 12:24:58;;;;;;;77.60;33.17;;;4.40;86.10;;;;;;4988240;28;20180;-69
2022/12/19 12:27:26;;;;;;;72.70;32.22;;;4.50;86.10;;;;;;4989480;28;20252;-69
2022/12/19 12:30:03;;;;;;;77.95;31.92;;;4.50;85.90;;;;;;4986950;28;20038;-68
2022/12/19 12:32:50;;;;;;;70.65;30.20;;;4.60;85.80;;;;;;4984305;28;20051;-68
2022/12/19 12:35:35;;;;;;;65.88;29.48;;;4.50;85.60;;;;;;4986167;28;20347;-68
2022/12/19 12:38:23;;;;;;;;;;;4.50;85.80;;;;;;4983991;28;20050;-68
2022/12/19 12:41:17;;;;;;;72.60;30.25;;;4.60;85.80;;;;;;4968967;28;21146;-68
2022/12/19 12:43:58;;;;;;;75.60;33.90;;;4.60;85.40;;;;;;4985016;28;20076;-68
2022/12/19 12:46:30;;;;;;;77.18;34.22;;;4.60;85.20;;;;;;4986168;28;20030;-69
2022/12/19 12:49:05;;;;;;;73.90;33.95;;;4.60;85.30;;;;;;4987331;28;20031;-68
2022/12/19 12:51:33;;;;;;;69.80;31.15;;;4.60;85.30;;;;;;4983664;28;20043;-69
2022/12/19 12:54:06;;;;;;;73.47;31.88;;;4.60;85.40;;;;;;4986347;28;20042;-68
2022/12/19 12:56:33;;;;;;;67.18;30.77;;;4.60;85.50;;;;;;4987314;28;20054;-68